WXM80 ListenWXM80 Stop

You find our weather info also at:

UK Metoffice

WeatherCloud

Weather Underground

Northeastern Weather Network

AWEKAS

Citizen Weather Observer Program (CWOP)

HAMweather, WeatherForYou, PWS Weather


Weather Underground History page Text

Daily Summary for February 24, 2018 Units:  Metric    English   Both
« Previous Day
Next Day »
Daily Weekly Monthly Yearly Custom
  High: Low: Average:
Temperature: 13.4 °C 4.1 °C 7.9 °C
Dew Point: 8.9 °C 3.8 °C 6.4 °C
Humidity: 98 % 71 % 91 %
Wind Speed: 11.1 km/h 0 km/h 2.4 km/h
Wind Gust: 20.9 km/h - -
Wind:- - SW
Pressure: 1015.5 hPa 1010.7 hPa -
Precipitation: 0 mm    
Historical Graphs
 
 
Tabular Data for February 24, 2018
Time Temperature Dew Point Pressure Wind Wind Speed Wind Gust Humidity Rainfall Rate (Hourly)
00:04 4.1 °C 3.8 °C 1012.8 hPa Calm     98 % 0 mm
00:09 4.2 °C 3.9 °C 1012.8 hPa Calm     98 % 0 mm
00:14 4.2 °C 3.9 °C 1012.8 hPa Calm     98 % 0 mm
00:19 4.3 °C 4 °C 1012.8 hPa Calm     98 % 0 mm
00:24 4.3 °C 4.1 °C 1012.8 hPa WSW 0.6 km/h 3.2 km/h 98 % 0 mm
00:29 4.4 °C 4.2 °C 1012.8 hPa WSW 1.4 km/h 1.9 km/h 98 % 0 mm
00:34 4.6 °C 4.3 °C 1012.8 hPa West 1.4 km/h 5.6 km/h 98 % 0 mm
00:39 4.6 °C 4.3 °C 1012.8 hPa West 1.1 km/h 5.6 km/h 98 % 0 mm
00:44 4.7 °C 4.4 °C 1012.8 hPa Calm     98 % 0 mm
00:50 4.7 °C 4.4 °C 1012.4 hPa West 1.1 km/h 5.6 km/h 98 % 0 mm
00:55 4.8 °C 4.5 °C 1012.8 hPa WSW 2.9 km/h 8 km/h 98 % 0 mm
01:00 4.8 °C 4.6 °C 1012.4 hPa WSW 1.4 km/h 6.4 km/h 98 % 0 mm
01:05 4.9 °C 4.7 °C 1012.4 hPa West 4.7 km/h 11.1 km/h 98 % 0 mm
01:10 5 °C 4.7 °C 1012.1 hPa West 1.8 km/h 5.6 km/h 98 % 0 mm
01:15 5.1 °C 4.8 °C 1012.4 hPa West 5.3 km/h 9.3 km/h 98 % 0 mm
01:20 5.2 °C 4.9 °C 1012.1 hPa South 1.3 km/h 3.7 km/h 98 % 0 mm
01:25 5.2 °C 4.9 °C 1012.1 hPa SW 3.2 km/h 5.6 km/h 98 % 0 mm
01:30 5.3 °C 5 °C 1012.1 hPa West 4.2 km/h 5.6 km/h 98 % 0 mm
01:35 5.3 °C 5.1 °C 1012.1 hPa West 2.9 km/h 9.3 km/h 98 % 0 mm
01:40 5.4 °C 5.2 °C 1012.4 hPa West 2.6 km/h 5.6 km/h 98 % 0 mm
01:45 5.5 °C 5.2 °C 1012.4 hPa SW 0.5 km/h 3.7 km/h 98 % 0 mm
01:50 5.6 °C 5.3 °C 1012.1 hPa SW 2.1 km/h 5.6 km/h 98 % 0 mm
01:52 5.6 °C 5.3 °C 1012.1 hPa WSW 4.8 km/h 7.4 km/h 98 % 0 mm
01:57 5.6 °C 5.3 °C 1012.1 hPa West 5.1 km/h 11.1 km/h 98 % 0 mm
02:02 5.7 °C 5.4 °C 1012.1 hPa West 3.5 km/h 9.3 km/h 98 % 0 mm
02:07 5.7 °C 5.4 °C 1011.7 hPa West 1.6 km/h 5.6 km/h 98 % 0 mm
02:12 5.7 °C 5.4 °C 1011.7 hPa West 1.4 km/h 3.2 km/h 98 % 0 mm
02:17 5.8 °C 5.5 °C 1011.7 hPa WSW 8.9 km/h 16.1 km/h 98 % 0 mm
02:22 5.8 °C 5.5 °C 1012.1 hPa WNW 4.5 km/h 9.3 km/h 98 % 0 mm
02:27 5.8 °C 5.6 °C 1012.1 hPa West 7.2 km/h 14.8 km/h 98 % 0 mm
02:32 5.8 °C 5.6 °C 1012.1 hPa West 3.4 km/h 9.3 km/h 98 % 0 mm
02:37 5.8 °C 5.5 °C 1012.1 hPa SW 4.3 km/h 9.3 km/h 98 % 0 mm
02:42 5.8 °C 5.5 °C 1011.7 hPa SW 3.4 km/h 6.4 km/h 98 % 0 mm
02:47 5.7 °C 5.4 °C 1011.7 hPa WSW 3.2 km/h 11.1 km/h 98 % 0 mm
02:52 5.7 °C 5.4 °C 1011.7 hPa SW 6.4 km/h 14.8 km/h 98 % 0 mm
02:58 5.7 °C 5.4 °C 1011.7 hPa WSW 5.3 km/h 18.5 km/h 98 % 0 mm
03:03 5.7 °C 5.4 °C 1011.7 hPa SW 4.2 km/h 13 km/h 98 % 0 mm
03:08 5.7 °C 5.4 °C 1011.7 hPa West 7.7 km/h 14.8 km/h 98 % 0 mm
03:13 5.7 °C 5.4 °C 1011.4 hPa SW 5 km/h 11.3 km/h 98 % 0 mm
03:18 5.7 °C 5.4 °C 1011.4 hPa WSW 3.5 km/h 8 km/h 98 % 0 mm
03:23 5.7 °C 5.4 °C 1011.4 hPa WSW 7.1 km/h 11.1 km/h 98 % 0 mm
03:28 5.7 °C 5.4 °C 1011.4 hPa WSW 1.9 km/h 5.6 km/h 98 % 0 mm
03:33 5.7 °C 5.4 °C 1011.4 hPa WSW 2.9 km/h 5.6 km/h 98 % 0 mm
03:38 5.7 °C 5.4 °C 1011.4 hPa SW 5.5 km/h 9.7 km/h 98 % 0 mm
03:43 5.7 °C 5.4 °C 1011.4 hPa WSW 5.3 km/h 13 km/h 98 % 0 mm
03:49 5.7 °C 5.4 °C 1011.4 hPa SW 5.3 km/h 16.7 km/h 98 % 0 mm
03:54 5.7 °C 5.4 °C 1011.4 hPa WSW 7.6 km/h 12.9 km/h 98 % 0 mm
03:59 5.7 °C 5.4 °C 1011.1 hPa SSW 9.3 km/h 13 km/h 98 % 0 mm
04:02 5.8 °C 5.5 °C 1011.1 hPa SW 8 km/h 11.1 km/h 98 % 0 mm
04:07 5.8 °C 5.3 °C 1010.7 hPa SSW 6.3 km/h 11.1 km/h 97 % 0 mm
04:12 5.8 °C 5.3 °C 1011.1 hPa SW 6.3 km/h 9.7 km/h 97 % 0 mm
04:17 5.8 °C 5.3 °C 1011.1 hPa SW 3.4 km/h 5.6 km/h 97 % 0 mm
04:22 5.8 °C 5.3 °C 1011.1 hPa WNW 4.5 km/h 6.4 km/h 97 % 0 mm
04:27 5.8 °C 5.4 °C 1011.4 hPa WSW 0.3 km/h 3.7 km/h 97 % 0 mm
04:32 5.8 °C 5.4 °C 1011.1 hPa West 6.8 km/h 11.1 km/h 97 % 0 mm
04:37 5.8 °C 5.4 °C 1011.1 hPa WSW 4.7 km/h 13 km/h 97 % 0 mm
04:42 5.9 °C 5.6 °C 1011.1 hPa West 0.6 km/h 5.6 km/h 98 % 0 mm
04:47 5.9 °C 5.4 °C 1011.4 hPa WSW 5.5 km/h 11.3 km/h 97 % 0 mm
04:52 5.9 °C 5.4 °C 1011.4 hPa West 6 km/h 11.1 km/h 97 % 0 mm
04:57 5.9 °C 5.4 °C 1011.4 hPa WSW 6.3 km/h 9.3 km/h 97 % 0 mm
05:02 5.9 °C 5.4 °C 1011.4 hPa WSW 10.9 km/h 16.7 km/h 97 % 0 mm
05:07 5.9 °C 5.4 °C 1011.4 hPa SW 3.5 km/h 8 km/h 97 % 0 mm
05:12 5.9 °C 5.5 °C 1011.7 hPa West 10.6 km/h 18.5 km/h 97 % 0 mm
05:17 5.9 °C 5.5 °C 1011.7 hPa WSW 4.5 km/h 9.7 km/h 97 % 0 mm
05:22 6 °C 5.6 °C 1011.7 hPa WSW 11.1 km/h 20.9 km/h 97 % 0 mm
05:27 6 °C 5.6 °C 1011.7 hPa SW 2.6 km/h 11.1 km/h 97 % 0 mm
05:32 5.9 °C 5.5 °C 1011.7 hPa SW 7.9 km/h 16.7 km/h 97 % 0 mm
05:37 5.9 °C 5.5 °C 1012.1 hPa SSW 7.1 km/h 9.3 km/h 97 % 0 mm
05:43 5.9 °C 5.5 °C 1011.7 hPa West 6.8 km/h 13 km/h 97 % 0 mm
05:48 6 °C 5.6 °C 1011.7 hPa SW 4.5 km/h 11.1 km/h 97 % 0 mm
05:53 5.9 °C 5.5 °C 1011.7 hPa WSW 7.6 km/h 13 km/h 97 % 0 mm
05:58 6 °C 5.6 °C 1011.7 hPa West 4.8 km/h 11.1 km/h 97 % 0 mm
06:03 6 °C 5.6 °C 1011.7 hPa WSW 8.5 km/h 14.8 km/h 97 % 0 mm
06:08 6 °C 5.6 °C 1011.7 hPa Calm     97 % 0 mm
06:13 6.1 °C 5.6 °C 1012.1 hPa Calm     97 % 0 mm
06:18 6.1 °C 5.6 °C 1012.1 hPa WSW 7.6 km/h 9.7 km/h 97 % 0 mm
06:23 6.1 °C 5.6 °C 1012.1 hPa WSW 7.9 km/h 14.8 km/h 97 % 0 mm
06:28 6.1 °C 5.6 °C 1012.1 hPa WSW 7.6 km/h 11.1 km/h 97 % 0 mm
06:33 6.1 °C 5.7 °C 1012.1 hPa SW 8 km/h 13 km/h 97 % 0 mm
06:38 6.2 °C 5.7 °C 1012.1 hPa West 5.8 km/h 13 km/h 97 % 0 mm
06:43 6.2 °C 5.8 °C 1012.1 hPa West 7.4 km/h 11.1 km/h 97 % 0 mm
06:48 6.3 °C 5.8 °C 1012.4 hPa WSW 7.6 km/h 9.3 km/h 97 % 0 mm
06:53 6.3 °C 5.8 °C 1012.4 hPa WSW 6.6 km/h 9.3 km/h 97 % 0 mm
06:58 6.3 °C 5.9 °C 1012.4 hPa WSW 6.8 km/h 18.5 km/h 97 % 0 mm
07:03 6.4 °C 6 °C 1012.4 hPa WSW 8.7 km/h 9.3 km/h 97 % 0 mm
07:08 6.6 °C 6.1 °C 1012.8 hPa NW 3.4 km/h 7.4 km/h 97 % 0 mm
07:13 6.7 °C 6.2 °C 1012.8 hPa West 6.1 km/h 6.1 km/h 97 % 0 mm
07:19 6.8 °C 6.3 °C 1012.8 hPa WSW 5.6 km/h 11.1 km/h 97 % 0 mm
07:24 6.8 °C 6.4 °C 1012.8 hPa SW 6.4 km/h 9.3 km/h 97 % 0 mm
07:29 6.8 °C 6.4 °C 1012.8 hPa WSW 2.4 km/h 14.8 km/h 97 % 0 mm
07:34 6.8 °C 6.2 °C 1012.8 hPa WSW 5 km/h 7.4 km/h 96 % 0 mm
07:39 6.8 °C 6.2 °C 1012.8 hPa WSW 4.7 km/h 13 km/h 96 % 0 mm
07:44 6.9 °C 6.3 °C 1012.8 hPa SSW 4.2 km/h 5.6 km/h 96 % 0 mm
07:49 6.9 °C 6.3 °C 1012.8 hPa West 1.9 km/h 5.6 km/h 96 % 0 mm
07:54 7 °C 6.4 °C 1012.8 hPa WSW 8.5 km/h 13 km/h 96 % 0 mm
07:59 7.1 °C 6.5 °C 1012.8 hPa West 1.9 km/h 5.6 km/h 96 % 0 mm
08:04 7.2 °C 6.6 °C 1012.8 hPa WSW 2.9 km/h 5.6 km/h 96 % 0 mm
08:09 7.4 °C 6.8 °C 1012.8 hPa SSW 2.4 km/h 7.4 km/h 96 % 0 mm
08:14 7.6 °C 7.2 °C 1012.8 hPa WSW 6.6 km/h 11.3 km/h 97 % 0 mm
08:19 7.8 °C 7.2 °C 1012.8 hPa NW 3.9 km/h 5.6 km/h 96 % 0 mm
08:24 8 °C 7.4 °C 1012.4 hPa WNW 4.3 km/h 9.7 km/h 96 % 0 mm
08:29 8.1 °C 7.5 °C 1012.4 hPa WSW 5 km/h 9.3 km/h 96 % 0 mm
08:34 8.3 °C 7.7 °C 1012.4 hPa Calm   1.6 km/h 96 % 0 mm
08:39 8.4 °C 7.6 °C 1012.4 hPa WNW 4.3 km/h 8 km/h 95 % 0 mm
08:44 8.5 °C 7.7 °C 1012.4 hPa Calm   7.4 km/h 95 % 0 mm
08:49 8.7 °C 7.8 °C 1012.8 hPa WNW 1.9 km/h 5.6 km/h 94 % 0 mm
08:54 8.8 °C 7.9 °C 1012.4 hPa NW 3.9 km/h 7.4 km/h 94 % 0 mm
08:59 8.9 °C 7.8 °C 1012.8 hPa WSW 6 km/h 9.7 km/h 93 % 0 mm
09:04 9 °C 7.8 °C 1012.4 hPa WSW 4.7 km/h 7.4 km/h 92 % 0 mm
09:09 9.2 °C 7.9 °C 1012.4 hPa WNW 2.7 km/h 5.6 km/h 92 % 0 mm
09:14 9.3 °C 7.9 °C 1012.8 hPa West 1.4 km/h 6.4 km/h 91 % 0 mm
09:19 9.6 °C 8.2 °C 1012.4 hPa West 3.2 km/h 5.6 km/h 91 % 0 mm
09:24 9.8 °C 8.3 °C 1012.4 hPa West 0.3 km/h 1.9 km/h 90 % 0 mm
09:29 10.1 °C 8.6 °C 1012.4 hPa WNW 0.6 km/h 5.6 km/h 90 % 0 mm
09:34 10.4 °C 8.6 °C 1012.1 hPa Calm   5.6 km/h 88 % 0 mm
09:39 10.7 °C 8.6 °C 1012.4 hPa West 3.7 km/h 5.6 km/h 87 % 0 mm
09:44 10.8 °C 8.3 °C 1012.4 hPa WNW 0.2 km/h 3.7 km/h 85 % 0 mm
09:49 10.8 °C 8.2 °C 1012.4 hPa NW 0.6 km/h 5.6 km/h 84 % 0 mm
09:54 10.9 °C 8.4 °C 1012.4 hPa NNW 1.9 km/h 3.7 km/h 85 % 0 mm
09:59 11 °C 8.6 °C 1012.4 hPa NNW 0.5 km/h 1.9 km/h 85 % 0 mm
10:05 11.3 °C 8.7 °C 1012.4 hPa Calm   1.9 km/h 84 % 0 mm
10:10 11.4 °C 8.8 °C 1012.4 hPa North 0.5 km/h 1.9 km/h 84 % 0 mm
10:15 11.4 °C 8.5 °C 1012.1 hPa North 1.6 km/h 3.7 km/h 82 % 0 mm
10:20 11.5 °C 8.3 °C 1012.4 hPa Calm   5.6 km/h 81 % 0 mm
10:25 11.6 °C 8.4 °C 1012.4 hPa Calm     81 % 0 mm
10:30 11.6 °C 8.6 °C 1012.4 hPa North 1.9 km/h 5.6 km/h 82 % 0 mm
10:35 11.6 °C 8.4 °C 1012.4 hPa North 1 km/h 3.7 km/h 81 % 0 mm
10:40 11.5 °C 8.3 °C 1012.4 hPa North 0.2 km/h 1.6 km/h 81 % 0 mm
10:45 11.5 °C 8.6 °C 1012.4 hPa Calm     82 % 0 mm
10:50 11.5 °C 8.2 °C 1012.4 hPa SW 2.9 km/h 4.8 km/h 80 % 0 mm
10:55 11.5 °C 8.3 °C 1012.4 hPa SW 0.8 km/h 1.9 km/h 81 % 0 mm
11:00 11.4 °C 8.1 °C 1012.4 hPa Calm     80 % 0 mm
11:05 11.4 °C 7.9 °C 1012.4 hPa SW 0.6 km/h 3.2 km/h 79 % 0 mm
11:10 11.3 °C 7.9 °C 1012.4 hPa SW 0.2 km/h 3.2 km/h 80 % 0 mm
11:15 11.3 °C 8.1 °C 1012.4 hPa SW 0.8 km/h 3.7 km/h 81 % 0 mm
11:20 11.3 °C 8.2 °C 1012.1 hPa SW 1.1 km/h 3.7 km/h 81 % 0 mm
11:25 11.4 °C 8.2 °C 1012.1 hPa Calm     81 % 0 mm
11:30 11.4 °C 8.1 °C 1012.1 hPa SW 1.6 km/h 4.8 km/h 80 % 0 mm
11:36 11.5 °C 8.2 °C 1012.1 hPa Calm   3.2 km/h 80 % 0 mm
11:40 11.6 °C 8.1 °C 1012.1 hPa Calm     79 % 0 mm
11:46 11.6 °C 8.3 °C 1011.7 hPa Calm   3.2 km/h 80 % 0 mm
11:51 11.7 °C 8.2 °C 1011.7 hPa Calm     79 % 0 mm
11:55 11.8 °C 8.5 °C 1011.7 hPa WNW 1.8 km/h 4.8 km/h 80 % 0 mm
12:01 11.9 °C 8.4 °C 1012.1 hPa SSW 3.4 km/h 7.4 km/h 79 % 0 mm
12:06 11.9 °C 8.1 °C 1012.1 hPa SSW 3.1 km/h 6.4 km/h 77 % 0 mm
12:11 11.9 °C 8.1 °C 1012.1 hPa WSW 5.3 km/h 9.3 km/h 77 % 0 mm
12:16 11.9 °C 8.1 °C 1012.8 hPa SSW 4.8 km/h 11.1 km/h 77 % 0 mm
12:21 11.9 °C 8.1 °C 1012.8 hPa SW 3.5 km/h 11.1 km/h 77 % 0 mm
12:26 11.9 °C 8 °C 1012.8 hPa SSW 2.3 km/h 3.7 km/h 77 % 0 mm
12:31 11.9 °C 8 °C 1012.8 hPa Calm     77 % 0 mm
12:36 12 °C 8.1 °C 1012.8 hPa SW 1.6 km/h 5.6 km/h 77 % 0 mm
12:41 12.2 °C 8.5 °C 1012.8 hPa Calm   3.7 km/h 78 % 0 mm
12:46 12.4 °C 8.9 °C 1012.4 hPa West 5.3 km/h 5.6 km/h 79 % 0 mm
12:51 12.6 °C 8.6 °C 1012.1 hPa WSW 3.9 km/h 5.6 km/h 77 % 0 mm
12:56 12.8 °C 8.7 °C 1012.1 hPa West 2.9 km/h 7.4 km/h 76 % 0 mm
13:01 12.9 °C 8.6 °C 1011.7 hPa WSW 3.7 km/h 7.4 km/h 75 % 0 mm
13:06 13 °C 8.4 °C 1011.7 hPa WSW 2.9 km/h 7.4 km/h 74 % 0 mm
13:11 13.1 °C 8.5 °C 1012.1 hPa West 3.1 km/h 5.6 km/h 74 % 0 mm
13:16 13.1 °C 8.5 °C 1011.7 hPa Calm     74 % 0 mm
13:22 13.1 °C 8.8 °C 1011.4 hPa Calm   1.9 km/h 75 % 0 mm
13:27 13.2 °C 8.5 °C 1011.4 hPa West 0.2 km/h 3.7 km/h 73 % 0 mm
13:32 13.3 °C 8.7 °C 1011.4 hPa NW 1 km/h 6.4 km/h 74 % 0 mm
13:37 13.4 °C 8.7 °C 1011.4 hPa NW 1 km/h 4.8 km/h 73 % 0 mm
13:42 13.4 °C 8.5 °C 1011.7 hPa West 1.9 km/h 5.6 km/h 72 % 0 mm
13:47 13.4 °C 8.5 °C 1011.4 hPa Calm     72 % 0 mm
13:52 13.3 °C 8.2 °C 1011.4 hPa WNW 1.1 km/h 3.7 km/h 71 % 0 mm
13:57 13.3 °C 8.1 °C 1011.4 hPa Calm     71 % 0 mm
14:02 13.2 °C 8.3 °C 1011.4 hPa Calm     72 % 0 mm
14:07 13.1 °C 8.1 °C 1011.1 hPa Calm     72 % 0 mm
14:12 12.9 °C 8.6 °C 1011.4 hPa WNW 0.2 km/h 1.9 km/h 75 % 0 mm
14:17 12.8 °C 8.3 °C 1011.4 hPa Calm     74 % 0 mm
14:22 12.7 °C 8 °C 1011.7 hPa Calm   1.9 km/h 73 % 0 mm
14:27 12.6 °C 7.9 °C 1012.1 hPa WNW 0.2 km/h 3.7 km/h 73 % 0 mm
14:32 12.5 °C 8 °C 1012.8 hPa WNW 0.3 km/h 3.2 km/h 74 % 0 mm
14:37 12.4 °C 7.9 °C 1012.8 hPa Calm   1.9 km/h 74 % 0 mm
14:42 12.2 °C 7.9 °C 1012.8 hPa WNW 0.2 km/h 5.6 km/h 75 % 0 mm
14:47 12.1 °C 8 °C 1012.4 hPa Calm     76 % 0 mm
14:52 12 °C 8.1 °C 1012.4 hPa Calm     77 % 0 mm
14:58 11.9 °C 8.3 °C 1012.4 hPa Calm     79 % 0 mm
15:03 11.7 °C 8.6 °C 1012.1 hPa Calm     81 % 0 mm
15:08 11.6 °C 8.7 °C 1012.1 hPa Calm     82 % 0 mm
15:13 11.5 °C 8.6 °C 1012.1 hPa Calm   1.9 km/h 82 % 0 mm
15:18 11.3 °C 8.3 °C 1011.7 hPa Calm     82 % 0 mm
15:23 11.1 °C 8.3 °C 1011.7 hPa Calm     83 % 0 mm
15:28 10.8 °C 8.1 °C 1011.7 hPa Calm     83 % 0 mm
15:33 10.6 °C 7.8 °C 1012.1 hPa Calm     83 % 0 mm
15:38 10.4 °C 7.8 °C 1012.1 hPa Calm     84 % 0 mm
15:43 10.2 °C 7.6 °C 1012.1 hPa Calm     84 % 0 mm
15:48 9.9 °C 7.1 °C 1012.4 hPa Calm     83 % 0 mm
15:53 9.7 °C 7.1 °C 1013.1 hPa Calm     84 % 0 mm
15:58 9.6 °C 7.2 °C 1013.1 hPa Calm     85 % 0 mm
16:03 9.4 °C 7.2 °C 1013.1 hPa WNW 3.2 km/h 5.6 km/h 86 % 0 mm
16:07 9.3 °C 7.1 °C 1013.4 hPa WNW 0.8 km/h 3.7 km/h 86 % 0 mm
16:12 9.2 °C 7.1 °C 1013.4 hPa WNW 3.1 km/h 5.6 km/h 87 % 0 mm
16:17 9 °C 6.9 °C 1014.1 hPa WNW 0.2 km/h 1.9 km/h 87 % 0 mm
16:22 8.8 °C 6.8 °C 1013.4 hPa NW 2.4 km/h 5.6 km/h 87 % 0 mm
16:27 8.6 °C 6.7 °C 1013.4 hPa North 1.6 km/h 3.7 km/h 88 % 0 mm
16:31 8.4 °C 6.6 °C 1013.4 hPa North 1.9 km/h 3.7 km/h 88 % 0 mm
16:36 8.3 °C 6.6 °C 1013.1 hPa NNE 3.2 km/h 4.8 km/h 89 % 0 mm
16:41 8.1 °C 6.4 °C 1013.1 hPa NE 4.5 km/h 7.4 km/h 89 % 0 mm
16:42 8.1 °C 6.4 °C 1012.8 hPa NE 3.9 km/h 7.4 km/h 89 % 0 mm
16:47 8 °C 6.4 °C 1012.8 hPa NE 0.6 km/h 1.9 km/h 90 % 0 mm
16:52 7.9 °C 6.4 °C 1013.1 hPa NNE 1.4 km/h 3.7 km/h 90 % 0 mm
16:57 7.9 °C 6.3 °C 1013.1 hPa NE 0.8 km/h 4.8 km/h 90 % 0 mm
17:02 7.8 °C 6.2 °C 1013.4 hPa NNE 2.9 km/h 5.6 km/h 90 % 0 mm
17:03 7.8 °C 6.2 °C 1013.4 hPa NNE 2.3 km/h 5.6 km/h 90 % 0 mm
17:08 7.7 °C 6.2 °C 1013.4 hPa NNE 0.2 km/h 1.9 km/h 90 % 0 mm
17:13 7.7 °C 6.3 °C 1013.4 hPa Calm     91 % 0 mm
17:18 7.6 °C 6.2 °C 1013.4 hPa NNE 2.1 km/h 4.8 km/h 91 % 0 mm
17:23 7.6 °C 6.2 °C 1014.1 hPa Calm   1.9 km/h 91 % 0 mm
17:24 7.6 °C 6.2 °C 1014.1 hPa North 0.3 km/h 1.9 km/h 91 % 0 mm
17:29 7.5 °C 6.3 °C 1014.1 hPa Calm     92 % 0 mm
17:34 7.5 °C 6.3 °C 1013.8 hPa Calm     92 % 0 mm
17:39 7.5 °C 6.3 °C 1013.4 hPa Calm     92 % 0 mm
17:45 7.4 °C 6.2 °C 1013.8 hPa Calm     92 % 0 mm
17:50 7.4 °C 6.2 °C 1013.4 hPa Calm     92 % 0 mm
17:55 7.4 °C 6.2 °C 1013.1 hPa Calm     92 % 0 mm
18:00 7.3 °C 6.1 °C 1013.1 hPa Calm     92 % 0 mm
18:02 7.3 °C 6.1 °C 1013.4 hPa Calm     92 % 0 mm
18:07 7.3 °C 6.1 °C 1013.4 hPa Calm     92 % 0 mm
18:12 7.3 °C 6.1 °C 1013.1 hPa North 0.2 km/h 5.6 km/h 92 % 0 mm
18:17 7.2 °C 6 °C 1013.1 hPa Calm     92 % 0 mm
18:22 7.2 °C 6 °C 1013.1 hPa Calm     92 % 0 mm
18:27 7.2 °C 6.1 °C 1013.4 hPa Calm   3.7 km/h 93 % 0 mm
18:32 7.2 °C 6.1 °C 1013.4 hPa Calm     93 % 0 mm
18:37 7.2 °C 6.1 °C 1013.1 hPa Calm     93 % 0 mm
18:43 7.2 °C 6.1 °C 1013.1 hPa NNE 0.5 km/h 3.2 km/h 93 % 0 mm
18:48 7.2 °C 6.1 °C 1012.8 hPa NNE 0.5 km/h 3.7 km/h 93 % 0 mm
18:52 7.2 °C 6.2 °C 1012.8 hPa Calm   3.7 km/h 93 % 0 mm
18:57 7.2 °C 6.2 °C 1013.1 hPa NNE 0.5 km/h 1.9 km/h 93 % 0 mm
19:02 7.2 °C 6.3 °C 1013.1 hPa Calm   1.6 km/h 94 % 0 mm
19:07 7.2 °C 6.3 °C 1013.1 hPa NNE 0.2 km/h 3.2 km/h 94 % 0 mm
19:12 7.3 °C 6.4 °C 1013.4 hPa Calm     94 % 0 mm
19:17 7.3 °C 6.4 °C 1013.4 hPa Calm     94 % 0 mm
19:22 7.2 °C 6.3 °C 1013.4 hPa Calm     94 % 0 mm
19:27 7.2 °C 6.3 °C 1013.4 hPa Calm     94 % 0 mm
19:32 7.2 °C 6.3 °C 1013.4 hPa Calm     94 % 0 mm
19:37 7.2 °C 6.3 °C 1013.4 hPa Calm     94 % 0 mm
19:42 7.1 °C 6.2 °C 1013.8 hPa Calm     94 % 0 mm
19:47 7.1 °C 6.2 °C 1013.8 hPa Calm     94 % 0 mm
19:52 7.1 °C 6.2 °C 1013.8 hPa Calm     94 % 0 mm
19:57 7.1 °C 6.2 °C 1013.8 hPa Calm     94 % 0 mm
20:02 7 °C 6.1 °C 1014.1 hPa NE 3.2 km/h 5.6 km/h 94 % 0 mm
20:08 7 °C 6.1 °C 1014.1 hPa NE 0.2 km/h 1.9 km/h 94 % 0 mm
20:13 6.9 °C 6.1 °C 1014.1 hPa Calm   3.7 km/h 94 % 0 mm
20:18 6.9 °C 6 °C 1014.1 hPa Calm   3.7 km/h 94 % 0 mm
20:23 6.8 °C 5.9 °C 1014.8 hPa NE 1.9 km/h 3.7 km/h 94 % 0 mm
20:28 6.8 °C 5.9 °C 1014.8 hPa NE 2.6 km/h 5.6 km/h 94 % 0 mm
20:33 6.7 °C 5.8 °C 1014.8 hPa NNE 2.6 km/h 5.6 km/h 94 % 0 mm
20:38 6.6 °C 5.7 °C 1014.8 hPa NNW 4.3 km/h 7.4 km/h 94 % 0 mm
20:43 6.4 °C 5.6 °C 1015.1 hPa NNE 4.5 km/h 9.3 km/h 94 % 0 mm
20:48 6.3 °C 5.4 °C 1014.8 hPa North 5.3 km/h 8 km/h 94 % 0 mm
20:53 6.2 °C 5.2 °C 1015.1 hPa NNW 4 km/h 5.6 km/h 93 % 0 mm
20:58 6.1 °C 5.1 °C 1015.1 hPa North 6.3 km/h 9.7 km/h 93 % 0 mm
21:03 6.1 °C 5.2 °C 1015.1 hPa North 5.5 km/h 11.1 km/h 94 % 0 mm
21:08 5.9 °C 5.1 °C 1015.5 hPa NNW 3.1 km/h 5.6 km/h 94 % 0 mm
21:13 5.9 °C 5 °C 1015.1 hPa NNW 1.1 km/h 3.7 km/h 94 % 0 mm
21:18 5.8 °C 4.9 °C 1015.1 hPa NNE 5.6 km/h 13 km/h 94 % 0 mm
21:23 5.8 °C 4.9 °C 1014.8 hPa NNE 4.8 km/h 5.6 km/h 94 % 0 mm
21:28 5.8 °C 4.9 °C 1014.8 hPa NNE 4.2 km/h 5.6 km/h 94 % 0 mm
21:34 5.7 °C 4.8 °C 1014.8 hPa North 3.9 km/h 6.4 km/h 94 % 0 mm
21:39 5.7 °C 4.8 °C 1014.8 hPa North 2.9 km/h 5.6 km/h 94 % 0 mm
21:44 5.7 °C 4.8 °C 1014.8 hPa North 1.3 km/h 3.7 km/h 94 % 0 mm
21:49 5.6 °C 4.7 °C 1014.8 hPa Calm     94 % 0 mm
21:54 5.6 °C 4.7 °C 1014.8 hPa Calm   1.9 km/h 94 % 0 mm
21:59 5.6 °C 4.7 °C 1014.8 hPa Calm     94 % 0 mm
22:04 5.5 °C 4.6 °C 1014.8 hPa Calm   1.9 km/h 94 % 0 mm
22:09 5.4 °C 4.6 °C 1014.8 hPa Calm     94 % 0 mm
22:14 5.4 °C 4.6 °C 1014.4 hPa NNE 1.4 km/h 5.6 km/h 94 % 0 mm
22:19 5.4 °C 4.5 °C 1014.8 hPa Calm     94 % 0 mm
22:24 5.4 °C 4.7 °C 1014.8 hPa Calm     95 % 0 mm
22:29 5.4 °C 4.7 °C 1014.8 hPa Calm     95 % 0 mm
22:34 5.4 °C 4.7 °C 1014.8 hPa Calm     95 % 0 mm
22:39 5.4 °C 4.7 °C 1014.4 hPa NNE 0.8 km/h 3.7 km/h 95 % 0 mm
22:44 5.4 °C 4.7 °C 1014.4 hPa NNE 1.6 km/h 5.6 km/h 95 % 0 mm
22:49 5.6 °C 4.8 °C 1014.8 hPa Calm     95 % 0 mm
22:54 5.5 °C 4.8 °C 1014.4 hPa NE 0.3 km/h 4.8 km/h 95 % 0 mm
22:59 5.6 °C 4.8 °C 1014.8 hPa Calm     95 % 0 mm
23:04 5.6 °C 4.8 °C 1014.8 hPa Calm     95 % 0 mm
23:09 5.6 °C 4.8 °C 1014.8 hPa NE 0.6 km/h   95 % 0 mm
23:15 5.5 °C 4.8 °C 1014.8 hPa Calm   1.9 km/h 95 % 0 mm
23:20 5.5 °C 4.8 °C 1014.8 hPa Calm     95 % 0 mm
23:25 5.5 °C 4.8 °C 1014.4 hPa NE 0.2 km/h 1.9 km/h 95 % 0 mm
23:30 5.4 °C 4.7 °C 1014.8 hPa NE 3.1 km/h 5.6 km/h 95 % 0 mm
23:35 5.4 °C 4.7 °C 1014.4 hPa ENE 4.7 km/h 7.4 km/h 95 % 0 mm
23:40 5.4 °C 4.7 °C 1014.4 hPa ENE 4.2 km/h 5.6 km/h 95 % 0 mm
23:45 5.4 °C 4.7 °C 1014.4 hPa ENE 2.4 km/h 5.6 km/h 95 % 0 mm
23:50 5.3 °C 4.6 °C 1014.4 hPa ENE 1.9 km/h 5.6 km/h 95 % 0 mm
23:55 5.3 °C 4.6 °C 1014.8 hPa Calm   1.9 km/h 95 % 0 mm
Crab Meadow Weather
Compliments of Weather Underground - 3 mb

Script developed by  Jim McMurry - jmcmurry@mwt.net Adapted for the template by  Wim van der Kuil - Leuven-Template.eu

Weather Terms: Heat Advisory - Maximum heat index of 105 to 110°F with a minimum of 75°F for two or more consecutive days.